Terminal Aerodrome Forecast
Issued by NWS Twin Cities, MN

Home | Current Version | Previous Version | Text Only | Print | Product List | Glossary On
Versions: 1 2 3 4 5 6 7 8 9 10 11 12 13 14 15 16 17 18 19 20 21 22 23 24
000
FTUS43 KMPX 271726
TAFMSP
TAF
KMSP 271726Z 2718/2824 12006KT P6SM BKN015 OVC050
     FM272100 13007KT P6SM BKN030 BKN050
     FM280100 13004KT P6SM SCT030 BKN150
     FM280800 14003KT 6SM BR SCT005 SCT015
     FM281000 15005KT 4SM BR BKN005
     FM281400 15006KT P6SM SCT025 BKN120
     FM281800 17008KT P6SM SCT040 SCT250=

USA.gov is the U.S. government's official web portal to all federal, state and local government web resources and services.